Airfield :
LOGIN :

Register | Disclaimer

   EN    FR    IT 

 










Legend :    VFR   Marginal VFR   IFR   Intensive IFR   Very Intensive IFR
Visi :
Ceiling :
>= 8 km
>= 3000ft
5 to 8 km
1000 to 3000 ft
1500m to 5 km
500 to 1000 ft
800 to 1500m
200 to 500 ft
< 800m
< 200 ft
Symbols :   Thunderstorms  Fog  Heavy snow  Heavy precipitations  Wind > 20 kt
SIGMETs :     Misc.  Thunderstorms  Icing  Turbulence  Mountain Waves  Volcanic Ashes






- Airport Elevation : 319 ft


EIME - Casement Air Base

CURRENT METAR :
  • 282200Z 25017KT 9999 -RADZ FEW010 BKN013 BKN050 09/08 Q1002

EXPIRED METARs :
  • 282100Z 24018KT 9999 -RADZ FEW007 SCT030 BKN050 10/09 Q1002
  • 282000Z 24013KT 9999 -RADZ FEW007 BKN031 11/10 Q1003
  • 281900Z 23017KT 9999 -RADZ FEW007 SCT012 12/11 Q1003
  • 281800Z 22017KT 8000 -RADZ FEW012 SCT019 BKN023 12/11 Q1003

TAF TAF EIME
Valid from the 28 at 21:00 until the 29 at 06:00 UTC


282000Z 2821/2906 23016KT 9999 FEW007 BKN030
TEMPO 2821/2903 24018G29KT
PROB40
TEMPO 2821/2822 4000 -RADZ BKN010
PROB30
TEMPO 2822/2903 -SHRA BKN012



MET'MAP, your aeronautical weather chart ! - Copyright ORBIFLY December 2007 - Disclaimer

ORBIFLY MET'MAP TEAM :

Programming & Development : Alexandra Zaïnal
Original concept : Baudouin d'Aumeries
Technical & hardware support : Manuel Goepfert
Assistance : Marc-Olivier Méhu




SOURCES & CREDITS :

   NOAA